CheckWX is a tool to help pilots better visualize weather data.  It is not intended as a substitute for an official pre-flight weather briefing.

18:53:27 UTC

CYVM TAF
Qikiqtarjuaq Airport
Qikiqtarjuaq, Canada
TAF CYVM 171839Z 1719/1807 VRB03KT P6SM OVC080 FM180100 VRB03KT 2SM -SN VV008 RMK NXT FCST BY 180100Z

Oct-17@
19:00 UTC

Oct-17 @ 19:00 UTC

Oct-18@
01:00 UTC

Oct-18 @ 01:00 UTC

TAF CYVM 171839Z 1719/1807 VRB03KT P6SM OVC080
Wind
  • Variable at 3 KTS
Cloud Levels
  • Overcast at 8,000' AGL

Oct-18@
01:00 UTC

Oct-18 @ 01:00 UTC

Oct-18@
07:00 UTC

Oct-18 @ 07:00 UTC

FM180100 VRB03KT 2SM -SN VV008 RMK NXT FCST BY 180100Z

From

From Standard forecast or significant change

Wind
  • Variable at 3 KTS
Conditions
Light Snow
Cloud Levels
  • Vertical visibility at 800' AGL